Arcola, Missouri
Current Conditions -  °F | °C
As of 11:52 PM on Sunday 19 Oct 2014 (Local Time) from KSGF Reporting Station
Overcast Overcast  
Wind Chill: 12°   Ceiling: 10000
Heat Index: 12°   Visibility: 10mi
Dew Point:   Wind: 8mph
Humidity: 83%   Direction: 180°S
Pressure: 30.05"   Gusts: NA
Location:  37.55°N, 93.88°W
Report Text: KSGF 200452Z 18007KT 10SM OVC100 12/09 A3005 RMK AO2 SLP174 T01220094
Loading
Personal Weather Stations






























Interactive Weather Map
Tropical Storm Tracking
New forecast layout! Learn more

10-Day Weather Forecast

Advertisements
Track Severe Weather on mobile